Time;durP1;ratioP1;P1;durP2;ratioP2;P2;SDS_P1;SDS_P2;PMS_P1;PMS_P2;Temp;Humidity;BMP_temperature;BMP_pressure;BME280_temperature;BME280_humidity;BME280_pressure;Samples;Min_cycle;Max_cycle;Signal;HPM_P1;HPM_P2
2023/10/11 00:00:39;;;;;;;18.67;6.43;;;;;;;16.73;75.23;99138.47;5092890;28;20024;-48
2023/10/11 00:03:05;;;;;;;17.08;6.03;;;;;;;16.70;74.80;99141.56;5092611;28;20020;-48
2023/10/11 00:05:39;;;;;;;14.32;7.00;;;;;;;16.54;74.92;99132.44;5092826;28;20020;-48
2023/10/11 00:18:10;;;;;;;15.10;6.18;;;;;;;16.01;76.22;99141.97;5091557;28;20474;-48
2023/10/11 00:23:04;;;;;;;23.88;6.15;;;;;;;15.71;77.30;99153.31;5092690;28;20478;-48
2023/10/11 00:25:30;;;;;;;19.05;6.70;;;;;;;15.75;78.11;99146.59;5092413;28;20031;-48
2023/10/11 00:27:59;;;;;;;18.58;6.50;;;;;;;15.90;78.02;99148.03;5092358;28;20397;-47
2023/10/11 00:30:26;;;;;;;19.27;6.85;;;;;;;15.89;77.67;99143.75;5092325;28;20043;-48
2023/10/11 00:32:52;;;;;;;12.80;9.57;;;;;;;16.02;78.03;99153.34;5092264;28;20547;-48
2023/10/11 00:35:18;;;;;;;20.13;7.38;;;;;;;16.24;77.40;99151.84;5092269;28;20027;-48
2023/10/11 00:37:47;;;;;;;40.10;23.55;;;;;;;16.44;77.19;99150.72;5092204;28;20099;-47
2023/10/11 00:40:14;;;;;;;28.30;17.02;;;;;;;16.71;76.46;99151.13;5092114;28;20073;-48
2023/10/11 00:42:42;;;;;;;10.32;5.97;;;;;;;16.71;74.73;99156.44;5092162;28;20111;-48
2023/10/11 00:45:09;;;;;;;17.75;5.93;;;;;;;16.47;74.47;99155.59;5092041;28;20024;-48
2023/10/11 00:47:40;;;;;;;48.17;25.85;;;;;;;16.44;75.31;99148.09;5090809;28;20020;-48
2023/10/11 00:50:14;;;;;;;26.65;13.48;;;;;;;16.62;75.44;99152.50;5092030;28;20047;-48
2023/10/11 00:52:43;;;;;;;17.77;6.40;;;;;;;16.68;74.24;99139.16;5092016;28;20473;-48
2023/10/11 00:55:17;;;;;;;12.85;5.60;;;;;;;16.41;73.63;99141.41;5091940;28;20056;-48
2023/10/11 00:57:45;;;;;;;20.02;6.65;;;;;;;15.97;73.93;99146.09;5092049;28;20493;-48
2023/10/11 01:00:15;;;;;;;13.95;6.03;;;;;;;15.66;75.13;99147.88;5091880;28;20047;-48
2023/10/11 01:02:44;;;;;;;13.20;5.25;;;;;;;15.53;76.20;99140.09;5092299;28;20028;-48
2023/10/11 01:05:11;;;;;;;14.38;5.50;;;;;;;15.43;76.73;99145.09;5091826;28;20111;-48
2023/10/11 01:07:38;;;;;;;22.95;10.20;;;;;;;15.37;77.66;99141.47;5092125;28;20130;-47
2023/10/11 01:10:07;;;;;;;18.00;11.60;;;;;;;15.34;78.39;99142.75;5091740;28;20030;-47
2023/10/11 01:12:38;;;;;;;14.52;6.10;;;;;;;15.49;78.57;99131.81;5091855;28;20028;-47
2023/10/11 01:15:11;;;;;;;21.70;6.85;;;;;;;15.49;78.29;99137.09;5091820;28;20024;-47
2023/10/11 01:17:39;;;;;;;18.70;5.82;;;;;;;15.63;78.54;99134.28;5091585;28;20021;-49
2023/10/11 01:20:13;;;;;;;14.57;6.38;;;;;;;15.61;77.86;99125.75;5091722;28;20039;-48
2023/10/11 01:22:45;;;;;;;16.30;7.25;;;;;;;15.60;78.06;99129.44;5091733;28;20063;-47
2023/10/11 01:25:20;;;;;;;19.50;8.15;;;;;;;15.77;78.45;99125.19;5091638;28;20547;-48
2023/10/11 01:27:47;;;;;;;17.00;7.30;;;;;;;16.08;77.97;99118.88;5091653;28;20063;-47
2023/10/11 01:30:13;;;;;;;14.85;6.78;;;;;;;16.33;76.58;99123.19;5093634;28;20020;-47
2023/10/11 01:32:42;;;;;;;18.80;6.45;;;;;;;16.19;75.74;99117.28;5094403;28;20032;-47
2023/10/11 01:35:13;;;;;;;21.50;6.30;;;;;;;16.05;75.76;99118.50;5095595;28;20494;-47
2023/10/11 01:37:43;;;;;;;15.27;7.55;;;;;;;15.97;76.20;99120.44;5095905;28;20024;-48
2023/10/11 01:40:10;;;;;;;17.38;6.30;;;;;;;16.02;76.42;99116.28;5095563;28;20453;-48
2023/10/11 01:42:36;;;;;;;15.07;6.18;;;;;;;16.21;76.39;99109.13;5095450;28;20024;-48
2023/10/11 01:45:08;;;;;;;19.75;5.75;;;;;;;16.41;75.71;99108.81;5095334;28;20508;-48
2023/10/11 01:47:38;;;;;;;15.48;6.47;;;;;;;16.52;75.64;99103.53;5095424;28;20122;-47
2023/10/11 01:50:05;;;;;;;13.85;6.60;;;;;;;16.23;76.99;99109.69;5095265;28;20103;-46
2023/10/11 01:52:34;;;;;;;18.67;6.55;;;;;;;15.87;79.18;99125.44;5094029;28;20095;-46
2023/10/11 01:55:03;;;;;;;19.08;7.10;;;;;;;15.36;81.40;99114.25;5095194;28;20089;-47
2023/10/11 01:57:29;;;;;;;45.97;40.30;;;;;;;15.14;85.15;99113.06;5093908;28;20079;-47
2023/10/11 01:59:55;;;;;;;41.95;36.67;;;;;;;15.25;88.20;99114.16;5093888;28;20119;-46
2023/10/11 02:02:26;;;;;;;20.58;11.00;;;;;;;15.24;89.31;99110.72;5093790;28;20038;-47
2023/10/11 02:04:56;;;;;;;25.05;15.55;;;;;;;15.26;90.77;99116.59;5095089;28;20050;-47
2023/10/11 02:07:22;;;;;;;22.35;9.27;;;;;;;15.38;91.74;99112.19;5094999;28;20537;-47
2023/10/11 02:09:48;;;;;;;15.77;7.22;;;;;;;15.53;91.75;99103.06;5093644;28;20028;-47
2023/10/11 02:12:17;;;;;;;18.73;6.75;;;;;;;15.57;91.50;99101.59;5094870;28;20035;-47
2023/10/11 02:14:44;;;;;;;14.63;6.75;;;;;;;15.69;92.02;99099.78;5094870;28;20066;-47
2023/10/11 02:17:13;;;;;;;19.67;7.00;;;;;;;15.84;91.85;99103.94;5094828;28;20023;-47
2023/10/11 02:19:39;;;;;;;11.38;5.97;;;;;;;15.93;91.08;99100.72;5094564;28;20056;-47
2023/10/11 02:22:04;;;;;;;14.65;6.05;;;;;;;15.95;89.99;99098.66;5094678;28;20024;-47
2023/10/11 02:24:30;;;;;;;18.77;6.25;;;;;;;15.88;89.01;99097.16;5094661;28;20110;-48
2023/10/11 02:26:58;;;;;;;26.23;11.82;;;;;;;15.74;88.97;99094.69;5094605;28;20095;-48
2023/10/11 02:29:24;;;;;;;30.17;17.02;;;;;;;15.53;87.61;99092.47;5094485;28;20028;-47
2023/10/11 02:31:54;;;;;;;11.98;6.75;;;;;;;15.20;86.97;99093.69;5094493;28;20397;-47
2023/10/11 02:34:22;;;;;;;14.70;5.88;;;;;;;15.02;87.93;99098.97;5094543;28;20060;-48
2023/10/11 02:37:02;;;;;;;19.00;8.07;;;;;;;14.89;88.76;99094.59;5094390;28;20401;-48
2023/10/11 02:39:43;;;;;;;24.83;10.95;;;;;;;14.94;90.20;99106.13;5093186;28;20148;-47
2023/10/11 02:42:09;;;;;;;13.10;6.18;;;;;;;15.06;90.61;99094.84;5093921;28;20497;-47
2023/10/11 02:44:41;;;;;;;17.17;5.88;;;;;;;14.96;89.48;99090.84;5094289;28;20027;-48
2023/10/11 02:47:08;;;;;;;12.63;6.70;;;;;;;14.77;89.91;99100.59;5094302;28;20024;-48
2023/10/11 02:49:34;;;;;;;14.60;6.07;;;;;;;14.73;90.62;99102.06;5094276;28;20107;-48
2023/10/11 02:52:05;;;;;;;18.25;6.30;;;;;;;14.71;90.87;99098.03;5092852;28;20103;-48
2023/10/11 02:54:38;;;;;;;11.45;5.95;;;;;;;14.58;90.56;99099.75;5094197;28;20520;-48
2023/10/11 02:57:09;;;;;;;17.38;6.72;;;;;;;14.43;90.57;99096.59;5094043;28;20038;-47
2023/10/11 02:59:35;;;;;;;12.68;6.25;;;;;;;14.34;91.14;99098.69;5094308;28;20016;-48
2023/10/11 03:02:01;;;;;;;15.63;6.00;;;;;;;14.29;91.43;99101.16;5094195;28;20024;-47
2023/10/11 03:04:39;;;;;;;16.42;6.15;;;;;;;14.25;91.81;99107.09;5093793;28;20460;-48
2023/10/11 03:07:09;;;;;;;18.13;7.15;;;;;;;14.36;92.88;99107.19;5093864;28;20028;-48
2023/10/11 03:09:37;;;;;;;18.70;6.45;;;;;;;14.56;93.01;99109.72;5093945;28;20452;-48
2023/10/11 03:12:17;;;;;;;18.48;6.80;;;;;;;14.79;92.89;99110.97;5093787;28;20497;-48
2023/10/11 03:14:47;;;;;;;15.85;8.55;;;;;;;15.11;92.48;99108.19;5093814;28;20039;-47
2023/10/11 03:17:16;;;;;;;18.10;6.43;;;;;;;15.31;91.39;99108.00;5093727;28;20024;-47
2023/10/11 03:19:43;;;;;;;19.23;6.22;;;;;;;15.47;90.50;99102.09;5093491;28;20502;-47
2023/10/11 03:22:11;;;;;;;24.10;7.78;;;;;;;15.54;89.74;99096.75;5075422;28;20058;-47
2023/10/11 03:24:40;;;;;;;19.92;7.22;;;;;;;15.62;89.05;99106.22;5093715;28;20047;-47
2023/10/11 03:27:10;;;;;;;17.15;7.90;;;;;;;15.41;87.19;99112.75;5093525;28;20028;-47
2023/10/11 03:29:36;;;;;;;13.88;7.35;;;;;;;15.04;85.63;99115.41;5093422;28;20069;-48
2023/10/11 03:32:04;;;;;;;17.10;6.68;;;;;;;14.80;86.74;99117.06;5093332;28;20520;-47
2023/10/11 03:34:29;;;;;;;11.68;5.88;;;;;;;14.73;87.06;99122.41;5093395;28;20021;-47
2023/10/11 03:36:59;;;;;;;15.68;7.57;;;;;;;14.83;87.54;99112.16;5093308;28;20367;-48
2023/10/11 03:39:44;;;;;;;30.08;9.02;;;;;;;14.90;87.05;99114.72;5093308;28;20458;-47
2023/10/11 03:44:40;;;;;;;13.55;5.60;;;;;;;14.78;86.06;99117.25;5093089;28;20513;-47
2023/10/11 03:47:08;;;;;;;14.32;5.68;;;;;;;14.78;85.48;99114.63;5093418;28;20111;-47
2023/10/11 03:49:51;;;;;;;11.90;5.35;;;;;;;14.86;85.13;99111.69;5093087;28;20041;-47
2023/10/11 03:52:25;;;;;;;11.93;5.63;;;;;;;14.94;85.01;99107.97;5092180;28;20024;-47
2023/10/11 03:55:09;;;;;;;17.53;10.90;;;;;;;14.94;84.26;99115.91;5091929;28;20112;-47
2023/10/11 03:57:40;;;;;;;20.42;14.30;;;;;;;14.78;83.29;99119.91;5092866;28;20246;-47
2023/10/11 04:02:44;;;;;;;15.73;5.78;;;;;;;14.37;82.74;99121.22;5092856;28;20112;-47
2023/10/11 04:05:10;;;;;;;18.35;5.97;;;;;;;14.27;82.71;99118.25;5092739;28;20115;-48
2023/10/11 04:07:36;;;;;;;12.30;5.95;;;;;;;14.11;82.62;99123.00;5092738;28;20023;-47
2023/10/11 04:10:09;;;;;;;14.15;5.72;;;;;;;13.95;83.52;99123.50;5092666;28;20031;-47
2023/10/11 04:12:42;;;;;;;16.38;5.55;;;;;;;13.86;83.85;99124.75;5092758;28;20228;-47
2023/10/11 04:15:24;;;;;;;20.60;6.57;;;;;;;13.78;84.25;99124.00;5093181;28;20389;-47
2023/10/11 04:17:55;;;;;;;13.50;5.47;;;;;;;13.73;84.60;99126.44;5091026;28;20414;-48
2023/10/11 04:20:33;;;;;;;13.93;5.72;;;;;;;13.73;84.88;99121.16;5092543;28;20030;-48
2023/10/11 04:23:10;;;;;;;13.73;5.28;;;;;;;13.70;84.74;99116.34;5092406;28;20115;-48
2023/10/11 04:25:37;;;;;;;15.75;5.25;;;;;;;13.72;84.92;99127.47;5092512;28;20024;-47
2023/10/11 04:28:05;;;;;;;13.18;5.65;;;;;;;13.71;84.85;99125.84;5091113;28;20066;-47
2023/10/11 04:30:46;;;;;;;18.33;5.93;;;;;;;13.71;84.77;99125.84;5092343;28;20374;-48
2023/10/11 04:33:20;;;;;;;17.75;6.15;;;;;;;13.74;84.54;99128.09;5092429;28;20040;-47
2023/10/11 04:35:58;;;;;;;20.58;5.90;;;;;;;13.77;84.66;99125.00;5092269;28;20028;-48
2023/10/11 04:38:24;;;;;;;20.38;5.60;;;;;;;13.79;84.13;99124.81;5092243;28;20028;-48
2023/10/11 04:40:51;;;;;;;14.75;5.55;;;;;;;13.86;84.59;99120.28;5091009;28;20027;-48
2023/10/11 04:43:21;;;;;;;20.05;6.03;;;;;;;14.09;84.77;99121.59;5090910;28;20027;-47
2023/10/11 04:45:51;;;;;;;14.68;5.03;;;;;;;14.30;83.97;99115.97;5092141;28;20077;-48
2023/10/11 04:48:19;;;;;;;13.88;5.78;;;;;;;14.26;83.08;99127.19;5092124;28;20494;-47
2023/10/11 04:50:54;;;;;;;14.82;6.53;;;;;;;14.10;82.41;99117.94;5092048;28;20051;-48
2023/10/11 04:53:21;;;;;;;16.52;6.38;;;;;;;13.92;82.42;99118.63;5092052;28;20028;-47
2023/10/11 04:58:59;;;;;;;15.30;5.85;;;;;;;13.79;83.36;99120.34;5069492;28;20085;-48
2023/10/11 05:01:39;;;;;;;20.13;5.72;;;;;;;13.78;83.17;99121.38;5069638;28;20657;-47
2023/10/11 05:04:12;;;;;;;18.30;5.55;;;;;;;13.72;83.35;99121.38;5069269;28;20055;-48
2023/10/11 05:06:41;;;;;;;18.02;5.88;;;;;;;13.69;83.51;99119.16;5069566;28;20028;-48
2023/10/11 05:11:44;;;;;;;21.50;6.13;;;;;;;13.62;83.25;99119.19;5069512;28;20025;-47
2023/10/11 05:14:28;;;;;;;19.75;6.63;;;;;;;13.57;83.72;99124.28;5069387;28;20028;-48
2023/10/11 05:16:59;;;;;;;20.88;7.75;;;;;;;13.56;83.75;99117.38;5052471;28;20037;-47
2023/10/11 05:19:34;;;;;;;15.68;6.70;;;;;;;13.52;83.75;99119.66;5069116;28;20465;-48
2023/10/11 05:22:03;;;;;;;15.85;5.45;;;;;;;13.53;83.96;99121.25;5069425;28;20064;-48
2023/10/11 05:25:12;;;;;;;17.08;5.55;;;;;;;13.57;84.12;99119.81;5069252;28;20521;-48
2023/10/11 05:32:50;;;;;;;20.30;6.72;;;;;;;13.46;86.68;99127.56;5091654;28;20032;-47
2023/10/11 05:35:24;;;;;;;18.55;6.70;;;;;;;13.72;88.81;99132.75;5091597;28;20040;-47
2023/10/11 05:51:43;;;;;;;21.75;6.93;;;;;;;15.65;85.13;99138.31;5091454;28;20031;-47
2023/10/11 05:54:11;;;;;;;54.70;8.23;;;;;;;15.72;84.08;99138.25;5091437;28;20046;-48
2023/10/11 05:56:45;;;;;;;37.53;7.20;;;;;;;15.80;82.40;99139.81;5091398;28;20482;-48
2023/10/11 05:59:14;;;;;;;38.90;7.83;;;;;;;15.63;80.85;99139.56;5091489;28;20020;-48
2023/10/11 06:01:47;;;;;;;31.42;7.72;;;;;;;15.65;80.78;99143.59;5091228;28;20517;-48
2023/10/11 06:04:16;;;;;;;18.33;6.47;;;;;;;15.78;79.60;99145.34;5091348;28;20515;-48
2023/10/11 06:06:45;;;;;;;21.25;5.68;;;;;;;16.11;78.77;99152.81;5090166;28;20032;-48
2023/10/11 06:09:17;;;;;;;19.35;6.43;;;;;;;16.73;76.78;99154.38;5091543;28;20020;-48
2023/10/11 06:11:50;;;;;;;19.67;6.88;;;;;;;17.19;74.24;99150.16;5090020;28;20501;-47
2023/10/11 06:14:19;;;;;;;26.92;7.72;;;;;;;17.41;72.67;99155.66;5091266;28;20024;-48
2023/10/11 06:16:49;;;;;;;36.05;7.72;;;;;;;17.45;71.79;99158.66;5093825;28;20058;-47
2023/10/11 06:19:16;;;;;;;19.80;5.30;;;;;;;17.23;71.41;99153.94;5093364;28;20181;-48
2023/10/11 06:21:58;;;;;;;36.53;6.80;;;;;;;16.94;71.65;99160.97;5095008;28;20032;-48
2023/10/11 06:24:35;;;;;;;30.30;7.13;;;;;;;16.96;71.84;99162.38;5094722;28;20063;-47
2023/10/11 06:28:09;;;;;;;36.70;7.10;;;;;;;17.22;71.16;99159.47;5094752;28;20074;-48
2023/10/11 06:29:56;;;;;;;;;;;;;;;17.39;70.80;99163.03;5093927;28;20517;-48
2023/10/11 06:32:23;;;;;;;20.70;6.55;;;;;;;17.25;70.09;99167.00;5094795;28;19912;-48
2023/10/11 06:34:52;;;;;;;26.48;6.90;;;;;;;17.05;69.86;99164.69;5093172;28;20062;-48
2023/10/11 06:37:34;;;;;;;35.33;8.60;;;;;;;17.04;70.16;99165.72;5093198;28;20028;-48
2023/10/11 06:42:31;;;;;;;62.17;13.85;;;;;;;17.48;68.88;99171.44;5094674;28;20123;-47
2023/10/11 06:45:05;;;;;;;49.10;9.52;;;;;;;17.67;67.68;99164.97;5094346;28;20031;-47
2023/10/11 06:47:35;;;;;;;122.82;19.92;;;;;;;17.71;67.86;99167.94;5094362;28;20115;-48
2023/10/11 06:50:11;;;;;;;138.48;21.45;;;;;;;18.15;67.12;99168.28;5094236;28;20028;-47
2023/10/11 06:52:45;;;;;;;121.00;19.08;;;;;;;19.22;63.47;99163.91;5094259;28;20035;-47
2023/10/11 06:57:40;;;;;;;77.30;11.75;;;;;;;20.47;58.57;99159.75;5094372;28;20035;-48
2023/10/11 07:00:12;;;;;;;86.22;13.57;;;;;;;20.82;57.34;99159.25;5094022;28;20039;-47
2023/10/11 07:02:47;;;;;;;81.25;13.50;;;;;;;21.02;56.17;99158.59;5094063;28;20025;-45
2023/10/11 07:05:17;;;;;;;;;;;;;;;21.04;57.57;99151.13;5094371;28;20024;-44
2023/10/11 07:07:52;;;;;;;43.88;8.15;;;;;;;21.07;55.02;99152.50;5093933;28;19912;-45
2023/10/11 07:10:28;;;;;;;76.83;14.60;;;;;;;21.23;54.87;99154.19;5093899;28;20032;-45
2023/10/11 07:13:05;;;;;;;32.95;8.45;;;;;;;21.61;52.64;99154.13;5093013;28;20379;-45
2023/10/11 07:15:40;;;;;;;38.67;10.23;;;;;;;21.54;51.80;99159.69;5092661;28;20104;-46
2023/10/11 07:18:27;;;;;;;19.27;7.70;;;;;;;21.44;51.97;99162.34;5093611;28;20603;-45
2023/10/11 07:21:10;;;;;;;31.52;6.70;;;;;;;21.57;51.65;99161.88;5092468;28;20028;-45
2023/10/11 07:24:19;;;;;;;30.63;6.75;;;;;;;21.96;51.03;99166.00;5092291;28;20397;-45
2023/10/11 07:29:01;;;;;;;20.58;5.82;;;;;;;22.40;47.99;99166.38;5093538;28;20115;-45
2023/10/11 07:31:37;;;;;;;36.08;8.00;;;;;;;22.57;48.75;99174.13;5093695;28;20036;-45
2023/10/11 07:34:10;;;;;;;33.45;8.40;;;;;;;22.91;47.42;99173.59;5093418;28;20517;-45
2023/10/11 07:36:37;;;;;;;21.70;5.82;;;;;;;23.08;47.36;99162.59;5093416;28;20032;-45
2023/10/11 07:39:14;;;;;;;19.50;6.13;;;;;;;23.30;46.51;99167.66;5093317;28;20044;-45
2023/10/11 07:41:42;;;;;;;15.30;5.57;;;;;;;23.49;45.81;99168.66;5093229;28;20104;-46
2023/10/11 07:44:10;;;;;;;31.02;7.07;;;;;;;23.57;45.68;99167.31;5093137;28;20016;-45
2023/10/11 07:46:37;;;;;;;16.92;5.10;;;;;;;23.72;45.10;99158.38;5093172;28;20036;-45
2023/10/11 07:49:07;;;;;;;15.77;6.05;;;;;;;23.75;44.84;99165.09;5093139;28;20012;-46
2023/10/11 07:51:39;;;;;;;32.20;7.13;;;;;;;24.13;44.84;99167.06;5092992;28;20043;-46
2023/10/11 07:54:19;;;;;;;22.10;6.35;;;;;;;24.92;43.15;99158.94;5093045;28;20024;-46
2023/10/11 07:56:46;;;;;;;25.58;6.35;;;;;;;25.46;41.95;99156.25;5093004;28;20397;-45
2023/10/11 07:59:12;;;;;;;24.60;7.07;;;;;;;26.02;40.95;99160.16;5092925;28;20486;-46
2023/10/11 08:01:44;;;;;;;35.35;7.78;;;;;;;26.40;40.03;99160.09;5091505;28;20032;-46
2023/10/11 08:04:48;;;;;;;27.15;6.18;;;;;;;26.75;39.63;99168.72;5093007;28;20039;-46
2023/10/11 08:07:12;;;;;;;32.20;9.00;;;;;;;27.43;38.31;99164.56;5091427;28;20085;-46
2023/10/11 08:09:46;;;;;;;17.52;5.82;;;;;;;27.63;37.01;99168.72;5092789;28;20028;-46
2023/10/11 08:12:18;;;;;;;27.50;6.20;;;;;;;27.95;36.81;99170.50;5092630;28;20024;-46
2023/10/11 08:14:45;;;;;;;88.95;14.13;;;;;;;28.27;36.20;99166.81;5091321;28;20075;-46
2023/10/11 08:17:21;;;;;;;14.23;5.22;;;;;;;28.67;34.98;99160.72;5092628;28;20031;-46
2023/10/11 08:19:53;;;;;;;143.63;20.65;;;;;;;29.06;34.86;99156.50;5092316;28;20509;-46
2023/10/11 08:22:20;;;;;;;38.25;7.03;;;;;;;29.74;34.32;99162.47;5092506;28;20125;-46
2023/10/11 08:24:51;;;;;;;75.85;11.30;;;;;;;30.39;33.10;99159.97;5092300;28;20027;-46
2023/10/11 08:27:27;;;;;;;58.13;10.13;;;;;;;30.46;32.88;99163.78;5092419;28;20046;-46
2023/10/11 08:30:22;;;;;;;42.20;8.02;;;;;;;30.68;32.55;99161.97;5092413;28;20505;-46
2023/10/11 08:32:48;;;;;;;91.95;15.63;;;;;;;31.11;31.80;99169.22;5092260;28;20103;-46
2023/10/11 08:35:31;;;;;;;111.63;14.63;;;;;;;31.46;31.09;99160.94;5092111;28;20032;-46
2023/10/11 08:38:02;;;;;;;84.18;14.13;;;;;;;31.87;30.64;99170.25;5091798;28;20039;-46
2023/10/11 08:40:35;;;;;;;72.30;12.05;;;;;;;32.03;30.81;99165.03;5092122;28;20107;-46
2023/10/11 08:43:02;;;;;;;51.28;9.88;;;;;;;32.17;30.31;99165.56;5092070;28;20017;-46
2023/10/11 08:45:33;;;;;;;23.50;5.53;;;;;;;32.28;30.26;99168.69;5092030;28;20023;-46
2023/10/11 08:48:06;;;;;;;45.03;9.13;;;;;;;33.07;29.63;99165.94;5092040;28;20028;-46
2023/10/11 08:50:34;;;;;;;69.55;10.32;;;;;;;33.34;28.67;99164.50;5092106;28;20031;-46
2023/10/11 08:53:07;;;;;;;23.45;6.53;;;;;;;33.37;28.72;99161.09;5091936;28;20024;-46
2023/10/11 08:55:39;;;;;;;101.93;14.65;;;;;;;33.48;28.61;99160.66;5092031;28;20405;-46
2023/10/11 08:58:12;;;;;;;108.60;13.65;;;;;;;33.46;28.04;99171.88;5091283;28;20028;-46
2023/10/11 09:00:38;;;;;;;93.88;12.82;;;;;;;33.50;27.84;99161.88;5091936;28;20105;-47
2023/10/11 09:03:31;;;;;;;81.78;12.80;;;;;;;33.63;28.12;99165.44;5090486;28;20024;-47
2023/10/11 09:06:00;;;;;;;86.22;12.02;;;;;;;33.74;27.98;99163.03;5085549;28;20559;-46
2023/10/11 09:08:31;;;;;;;129.98;16.23;;;;;;;33.85;27.45;99169.59;5091773;28;20035;-47
2023/10/11 09:11:11;;;;;;;250.48;29.20;;;;;;;34.07;27.53;99172.91;5074369;28;20063;-46
2023/10/11 09:13:38;;;;;;;268.35;28.98;;;;;;;34.34;27.24;99160.47;5090512;28;20106;-47
2023/10/11 09:16:12;;;;;;;131.02;17.27;;;;;;;34.69;26.66;99157.94;5091967;28;20020;-46
2023/10/11 09:18:39;;;;;;;88.15;12.88;;;;;;;34.76;26.11;99158.09;5091503;28;20109;-46
2023/10/11 09:21:18;;;;;;;57.08;9.85;;;;;;;34.73;26.31;99158.00;5091769;28;20028;-46
2023/10/11 09:23:49;;;;;;;67.20;10.20;;;;;;;34.84;26.24;99155.56;5090379;28;20409;-46
2023/10/11 09:26:32;;;;;;;81.18;12.25;;;;;;;34.72;26.49;99161.88;5092029;28;20028;-47
2023/10/11 09:29:03;;;;;;;96.68;12.52;;;;;;;34.86;26.27;99154.06;5091722;28;20024;-47
2023/10/11 09:31:33;;;;;;;60.00;9.38;;;;;;;35.06;25.85;99162.34;5091677;28;20024;-47
2023/10/11 09:34:04;;;;;;;78.65;9.98;;;;;;;35.20;25.41;99159.97;5090316;28;20032;-47
2023/10/11 09:36:31;;;;;;;52.92;9.60;;;;;;;35.49;24.74;99157.91;5091550;28;20036;-46
2023/10/11 09:38:58;;;;;;;44.47;7.45;;;;;;;35.70;24.88;99157.59;5091570;28;20023;-47
2023/10/11 09:41:25;;;;;;;17.67;5.25;;;;;;;35.80;24.76;99157.84;5091546;28;20024;-47
2023/10/11 09:44:00;;;;;;;21.45;6.05;;;;;;;35.68;24.64;99157.16;5091507;28;20069;-49
2023/10/11 09:46:29;;;;;;;45.38;9.43;;;;;;;35.42;25.39;99153.09;5091528;28;20513;-49
2023/10/11 09:49:04;;;;;;;18.50;4.65;;;;;;;35.28;25.49;99152.75;5091536;28;20016;-49
2023/10/11 09:51:30;;;;;;;27.67;6.65;;;;;;;35.18;25.50;99138.50;5092535;28;20085;-49
2023/10/11 09:54:07;;;;;;;28.15;7.03;;;;;;;35.06;25.80;99149.50;5095365;28;20111;-49
2023/10/11 09:56:51;;;;;;;25.77;6.90;;;;;;;34.95;25.87;99146.50;5094177;28;20024;-49
2023/10/11 09:59:47;;;;;;;34.80;7.45;;;;;;;34.83;26.25;99138.41;5095254;28;20031;-49
2023/10/11 10:02:37;;;;;;;30.35;7.93;;;;;;;34.70;26.40;99143.16;5095299;28;20024;-49
2023/10/11 10:05:06;;;;;;;19.77;7.32;;;;;;;34.73;26.20;99136.19;5083904;28;20040;-48
2023/10/11 10:07:45;;;;;;;18.92;5.40;;;;;;;34.76;25.87;99139.00;5095396;28;20047;-49
2023/10/11 10:10:15;;;;;;;26.52;6.90;;;;;;;35.01;25.80;99131.47;5095376;28;20036;-46
2023/10/11 10:13:00;;;;;;;27.05;7.30;;;;;;;35.30;25.20;99129.41;5093688;28;20028;-46
2023/10/11 10:15:36;;;;;;;19.15;6.18;;;;;;;35.59;24.83;99135.50;5094882;28;20088;-47
2023/10/11 10:18:12;;;;;;;18.95;5.72;;;;;;;35.93;24.60;99133.91;5094714;28;20047;-47
2023/10/11 10:20:43;;;;;;;16.42;4.32;;;;;;;36.30;24.09;99138.97;5094871;28;20017;-47
2023/10/11 10:23:15;;;;;;;26.52;5.50;;;;;;;36.83;24.01;99130.13;5093539;28;20028;-49
2023/10/11 10:25:48;;;;;;;36.88;8.00;;;;;;;37.13;23.18;99121.25;5093384;28;20030;-50
2023/10/11 10:28:32;;;;;;;22.02;6.13;;;;;;;37.38;22.92;99135.28;5093726;28;20032;-49
2023/10/11 10:31:22;;;;;;;;;;;;;;;37.43;23.60;99124.03;5093727;28;20028;-49
2023/10/11 10:33:51;;;;;;;17.10;4.75;;;;;;;37.38;22.63;99127.06;5089103;28;19908;-50
2023/10/11 10:36:20;;;;;;;20.67;6.20;;;;;;;37.47;22.78;99133.09;5094509;28;20028;-49
2023/10/11 10:39:00;;;;;;;40.80;7.38;;;;;;;37.68;22.82;99132.59;5094410;28;20058;-49
2023/10/11 10:41:31;;;;;;;26.73;5.93;;;;;;;37.74;22.74;99135.81;5094499;28;20028;-50
2023/10/11 10:44:10;;;;;;;26.00;5.70;;;;;;;37.90;22.88;99127.38;5092997;28;20058;-49
2023/10/11 10:46:45;;;;;;;21.88;6.22;;;;;;;37.97;22.62;99121.97;5094399;28;20489;-49
2023/10/11 10:49:11;;;;;;;31.67;6.60;;;;;;;37.91;22.89;99127.03;5094279;28;20020;-49
2023/10/11 10:51:37;;;;;;;25.63;5.75;;;;;;;37.89;22.81;99121.13;5092868;28;20035;-49
2023/10/11 10:54:14;;;;;;;21.08;5.43;;;;;;;38.14;23.01;99128.88;5094401;28;20395;-49
2023/10/11 10:56:41;;;;;;;18.40;5.53;;;;;;;38.13;22.93;99127.28;5094211;28;20028;-49
2023/10/11 10:59:12;;;;;;;19.73;4.72;;;;;;;38.17;22.70;99126.16;5094063;28;20547;-49
2023/10/11 11:01:38;;;;;;;24.77;6.47;;;;;;;38.28;22.85;99122.75;5093708;28;20063;-50
2023/10/11 11:04:08;;;;;;;28.55;7.00;;;;;;;38.51;22.25;99120.63;5093915;28;20081;-49
2023/10/11 11:06:44;;;;;;;19.30;6.30;;;;;;;38.29;22.23;99125.09;5092999;28;20032;-49
2023/10/11 11:09:19;;;;;;;19.27;5.65;;;;;;;38.27;22.50;99123.91;5093945;28;20404;-49
2023/10/11 11:11:46;;;;;;;15.50;5.60;;;;;;;38.23;21.92;99115.63;5093976;28;20032;-49
2023/10/11 11:14:14;;;;;;;26.50;6.20;;;;;;;38.22;22.72;99114.06;5093844;28;20432;-49
2023/10/11 11:16:41;;;;;;;29.55;6.32;;;;;;;38.17;22.08;99111.66;5093747;28;20027;-50
2023/10/11 11:19:26;;;;;;;42.05;8.18;;;;;;;38.29;22.12;99103.16;5092297;28;20044;-49
2023/10/11 11:22:12;;;;;;;57.60;9.20;;;;;;;38.26;22.26;99101.19;5092374;28;20075;-49
2023/10/11 11:24:42;;;;;;;18.73;5.47;;;;;;;38.23;21.83;99103.88;5093583;28;20021;-49
2023/10/11 11:27:40;;;;;;;20.08;5.65;;;;;;;38.31;22.48;99100.81;5092245;28;20520;-49
2023/10/11 11:30:33;;;;;;;35.92;7.10;;;;;;;38.55;22.05;99098.72;5092668;28;20044;-49
2023/10/11 11:33:13;;;;;;;42.95;6.95;;;;;;;38.66;22.33;99090.59;5092539;28;20474;-49
2023/10/11 11:35:54;;;;;;;30.80;7.20;;;;;;;38.58;21.95;99091.69;5093678;28;20097;-50
2023/10/11 11:38:23;;;;;;;43.08;11.50;;;;;;;38.27;21.94;99091.00;5093311;28;20040;-49
2023/10/11 11:41:00;;;;;;;21.60;6.30;;;;;;;38.16;22.03;99088.16;5093201;28;20058;-49
2023/10/11 11:43:38;;;;;;;25.27;7.82;;;;;;;38.09;22.57;99082.59;5093236;28;20031;-49
2023/10/11 11:46:04;;;;;;;16.52;5.18;;;;;;;38.09;22.61;99088.88;5093263;28;20039;-49
2023/10/11 11:48:40;;;;;;;31.50;6.15;;;;;;;38.13;21.82;99084.22;5093052;28;20048;-49
2023/10/11 11:51:13;;;;;;;31.77;6.13;;;;;;;38.20;22.15;99074.50;5093326;28;20036;-49
2023/10/11 11:53:43;;;;;;;21.83;6.28;;;;;;;38.35;21.93;99073.44;5092024;28;20028;-49
2023/10/11 11:56:11;;;;;;;14.60;5.72;;;;;;;38.28;21.93;99065.94;5092955;28;20024;-49
2023/10/11 11:58:40;;;;;;;17.33;5.38;;;;;;;38.27;21.77;99058.09;5092963;28;20024;-49
2023/10/11 12:01:15;;;;;;;15.80;5.57;;;;;;;38.19;21.99;99059.19;5093213;28;20028;-49
2023/10/11 12:03:42;;;;;;;31.98;6.25;;;;;;;37.87;22.79;99059.63;5092867;28;20057;-49
2023/10/11 12:06:21;;;;;;;26.58;5.93;;;;;;;37.91;22.80;99050.28;5091538;28;20107;-49
2023/10/11 12:08:57;;;;;;;15.85;5.03;;;;;;;38.18;21.84;99044.72;5091539;28;20032;-50
2023/10/11 12:11:28;;;;;;;22.63;6.88;;;;;;;38.32;22.02;99041.31;5092744;28;20054;-50
2023/10/11 12:13:56;;;;;;;36.83;6.28;;;;;;;38.36;21.79;99037.44;5090759;28;20077;-49
2023/10/11 12:16:23;;;;;;;36.92;5.97;;;;;;;38.23;21.48;99025.16;5092571;28;20028;-50
2023/10/11 12:18:49;;;;;;;20.90;5.18;;;;;;;38.32;21.91;99022.91;5092353;28;20092;-49
2023/10/11 12:21:15;;;;;;;18.85;5.20;;;;;;;38.39;21.42;99029.59;5091240;28;20020;-49
2023/10/11 12:23:47;;;;;;;16.38;5.05;;;;;;;38.30;21.63;99014.25;5092726;28;20056;-49
2023/10/11 12:26:17;;;;;;;24.42;6.15;;;;;;;38.38;22.21;99015.13;5091198;28;20061;-49
2023/10/11 12:28:46;;;;;;;11.95;4.20;;;;;;;38.09;21.35;99012.13;5074290;28;20156;-50
2023/10/11 12:31:12;;;;;;;9.60;4.10;;;;;;;37.66;21.69;99008.91;5091190;28;20020;-49
2023/10/11 12:33:39;;;;;;;10.35;4.30;;;;;;;37.36;21.74;99009.72;5074192;28;20146;-49
2023/10/11 12:36:05;;;;;;;12.45;4.93;;;;;;;36.83;22.04;99007.03;5092229;28;20490;-49